createdAt,value
2019-01-24T00:00:49.791Z,2.40
2019-01-24T00:03:15.950Z,3.70
2019-01-24T00:05:42.157Z,3.73
2019-01-24T00:08:08.324Z,3.10
2019-01-24T00:10:34.492Z,3.33
2019-01-24T00:13:00.687Z,2.73
2019-01-24T00:15:26.852Z,1.83
2019-01-24T00:17:53.467Z,1.67
2019-01-24T00:20:19.758Z,1.23
2019-01-24T00:22:46.032Z,1.50
2019-01-24T00:25:12.593Z,1.30
2019-01-24T00:27:38.784Z,1.43
2019-01-24T00:30:13.005Z,2.50
2019-01-24T00:32:39.170Z,3.10
2019-01-24T00:35:06.571Z,3.00
2019-01-24T00:37:32.728Z,3.70
2019-01-24T00:39:58.891Z,2.70
2019-01-24T00:42:25.082Z,2.83
2019-01-24T00:44:51.237Z,3.60
2019-01-24T00:47:17.505Z,2.13
2019-01-24T00:49:43.691Z,2.63
2019-01-24T00:52:09.853Z,2.80
2019-01-24T00:54:36.019Z,2.60
2019-01-24T00:57:02.250Z,2.53
2019-01-24T00:59:28.503Z,2.27
2019-01-24T01:01:54.660Z,2.33
2019-01-24T01:04:20.855Z,2.90
2019-01-24T01:06:47.020Z,2.10
2019-01-24T01:09:13.188Z,2.40
2019-01-24T01:11:39.389Z,2.20
2019-01-24T01:14:05.701Z,2.30
2019-01-24T01:16:31.863Z,2.03
2019-01-24T01:18:58.155Z,2.00
2019-01-24T01:21:24.316Z,2.23
2019-01-24T01:23:50.476Z,1.90
2019-01-24T01:26:16.671Z,2.07
2019-01-24T01:28:42.931Z,2.00
2019-01-24T01:31:09.092Z,2.20
2019-01-24T01:33:35.286Z,4.87
2019-01-24T01:36:01.552Z,2.80
2019-01-24T01:38:27.816Z,3.10
2019-01-24T01:40:54.023Z,2.20
2019-01-24T01:43:20.193Z,2.60
2019-01-24T01:45:46.351Z,1.90
2019-01-24T01:48:12.543Z,2.17
2019-01-24T01:50:39.247Z,3.00
2019-01-24T01:53:05.408Z,3.30
2019-01-24T01:55:31.595Z,4.00
2019-01-24T01:57:57.758Z,2.87
2019-01-24T02:00:24.527Z,3.20
2019-01-24T02:02:50.727Z,3.17
2019-01-24T02:05:16.901Z,2.97
2019-01-24T02:07:43.151Z,2.40
2019-01-24T02:10:15.343Z,1.97
2019-01-24T02:12:42.308Z,2.53
2019-01-24T02:15:10.981Z,2.10
2019-01-24T02:17:37.178Z,2.50
2019-01-24T02:20:06.949Z,2.30
2019-01-24T02:22:33.116Z,3.40
2019-01-24T02:24:59.311Z,2.27
2019-01-24T02:27:25.471Z,2.93
2019-01-24T02:29:51.636Z,2.53
2019-01-24T02:32:17.834Z,2.13
2019-01-24T02:34:49.650Z,1.73
2019-01-24T02:37:12.055Z,2.40
2019-01-24T02:39:38.245Z,2.00
2019-01-24T02:42:04.409Z,2.30
2019-01-24T02:44:30.575Z,2.47
2019-01-24T02:46:56.782Z,2.13
2019-01-24T02:49:22.951Z,2.20
2019-01-24T02:51:49.114Z,2.20
2019-01-24T02:54:15.306Z,2.17
2019-01-24T02:56:41.467Z,1.97
2019-01-24T02:59:07.729Z,2.13
2019-01-24T03:01:34.031Z,2.30
2019-01-24T03:04:00.190Z,2.70
2019-01-24T03:06:26.349Z,2.70
2019-01-24T03:08:52.563Z,2.30
2019-01-24T03:11:18.718Z,1.97
2019-01-24T03:13:44.875Z,3.00
2019-01-24T03:16:11.133Z,2.93
2019-01-24T03:18:37.684Z,1.30
2019-01-24T03:21:03.951Z,2.10
2019-01-24T03:23:30.170Z,2.30
2019-01-24T03:25:56.366Z,3.10
2019-01-24T03:28:22.540Z,3.00
2019-01-24T03:30:48.639Z,2.70
2019-01-24T03:33:14.822Z,3.27
2019-01-24T03:35:40.994Z,3.47
2019-01-24T03:38:07.185Z,4.10
2019-01-24T03:40:33.343Z,3.30
2019-01-24T03:42:59.496Z,3.80
2019-01-24T03:45:25.795Z,2.80
2019-01-24T03:47:51.958Z,3.27
2019-01-24T03:50:21.650Z,3.10
2019-01-24T03:52:48.755Z,3.73
2019-01-24T03:55:17.818Z,3.47
2019-01-24T03:57:44.032Z,2.73
2019-01-24T04:00:13.315Z,3.10
2019-01-24T04:02:39.594Z,3.87
2019-01-24T04:05:11.784Z,3.30
2019-01-24T04:07:34.059Z,3.30
2019-01-24T04:10:00.238Z,3.13
2019-01-24T04:12:26.400Z,2.70
2019-01-24T04:14:52.613Z,3.07
2019-01-24T04:17:19.844Z,2.30
2019-01-24T04:19:46.113Z,3.13
2019-01-24T04:22:12.305Z,3.10
2019-01-24T04:24:38.473Z,3.40
2019-01-24T04:27:04.641Z,3.83
2019-01-24T04:29:30.846Z,2.87
2019-01-24T04:31:57.017Z,3.40
2019-01-24T04:34:23.177Z,4.47
2019-01-24T04:36:49.380Z,4.10
2019-01-24T04:39:15.548Z,4.80
2019-01-24T04:41:41.720Z,3.23
2019-01-24T04:44:07.911Z,3.87
2019-01-24T04:46:34.076Z,5.07
2019-01-24T04:49:00.253Z,7.30
2019-01-24T04:51:26.444Z,4.37
2019-01-24T04:53:52.608Z,5.30
2019-01-24T04:56:18.784Z,4.43
2019-01-24T04:58:44.989Z,5.37
2019-01-24T05:01:11.249Z,4.00
2019-01-24T05:03:37.415Z,3.67
2019-01-24T05:06:03.607Z,3.80
2019-01-24T05:08:29.771Z,4.13
2019-01-24T05:10:55.940Z,3.90
2019-01-24T05:13:22.129Z,4.43
2019-01-24T05:15:48.410Z,4.40
2019-01-24T05:18:14.571Z,4.60
2019-01-24T05:20:40.777Z,4.13
2019-01-24T05:23:06.935Z,5.13
2019-01-24T05:25:33.201Z,4.57
2019-01-24T05:27:59.505Z,5.37
2019-01-24T05:30:25.764Z,5.70
2019-01-24T05:32:52.225Z,6.80
2019-01-24T05:35:18.418Z,6.23
2019-01-24T05:37:46.493Z,6.77
2019-01-24T05:40:12.970Z,6.13
2019-01-24T05:42:39.175Z,5.20
2019-01-24T05:45:10.977Z,5.77
2019-01-24T05:47:37.138Z,4.50
2019-01-24T05:50:06.930Z,5.47
2019-01-24T05:52:33.196Z,5.33
2019-01-24T05:54:59.359Z,6.50
2019-01-24T05:57:25.669Z,5.23
2019-01-24T05:59:51.822Z,6.40
2019-01-24T06:02:18.088Z,3.87
2019-01-24T06:04:44.290Z,5.60
2019-01-24T06:07:10.445Z,5.93
2019-01-24T06:09:36.610Z,6.70
2019-01-24T06:12:02.810Z,6.07
2019-01-24T06:14:29.075Z,7.17
2019-01-24T06:16:55.242Z,12.03
2019-01-24T06:19:21.800Z,6.43
2019-01-24T06:21:47.966Z,6.20
2019-01-24T06:24:14.221Z,6.67
2019-01-24T06:26:40.423Z,5.63
2019-01-24T06:29:06.585Z,6.70
2019-01-24T06:31:32.770Z,7.47
2019-01-24T06:33:59.065Z,7.60
2019-01-24T06:36:25.232Z,8.17
2019-01-24T06:38:51.387Z,7.83
2019-01-24T06:41:17.584Z,8.17
2019-01-24T06:43:43.861Z,6.80
2019-01-24T06:46:10.026Z,8.67
2019-01-24T06:48:36.218Z,11.87
2019-01-24T06:51:02.398Z,7.17
2019-01-24T06:53:28.666Z,5.80
2019-01-24T06:55:54.872Z,5.80
2019-01-24T06:58:21.038Z,5.73
2019-01-24T07:00:47.307Z,5.80
2019-01-24T07:03:13.614Z,9.70
2019-01-24T07:05:39.803Z,10.10
2019-01-24T07:08:06.073Z,8.63
2019-01-24T07:10:32.641Z,10.47
2019-01-24T07:12:58.762Z,26.57
2019-01-24T07:15:24.925Z,11.43
2019-01-24T07:17:51.620Z,8.33
2019-01-24T07:20:19.590Z,8.83
2019-01-24T07:22:45.759Z,9.70
2019-01-24T07:25:15.354Z,4.90
2019-01-24T07:27:41.517Z,7.37
2019-01-24T07:30:10.887Z,4.27
2019-01-24T07:32:37.087Z,7.00
2019-01-24T07:35:06.855Z,7.37
2019-01-24T07:37:33.015Z,8.23
2019-01-24T07:39:59.212Z,8.63
2019-01-24T07:42:25.379Z,9.40
2019-01-24T07:44:51.539Z,7.40
2019-01-24T07:47:17.736Z,8.40
2019-01-24T07:49:43.908Z,7.90
2019-01-24T07:52:10.074Z,5.10
2019-01-24T07:54:36.282Z,5.10
2019-01-24T07:57:02.544Z,4.63
2019-01-24T07:59:28.703Z,4.43
2019-01-24T08:01:54.903Z,6.20
2019-01-24T08:04:21.074Z,3.17
2019-01-24T08:06:47.270Z,5.07
2019-01-24T08:09:13.573Z,5.57
2019-01-24T08:11:39.743Z,3.60
2019-01-24T08:14:05.911Z,4.17
2019-01-24T08:16:32.099Z,5.00
2019-01-24T08:18:58.270Z,5.60
2019-01-24T08:21:24.470Z,5.20
2019-01-24T08:23:50.662Z,5.60
2019-01-24T08:26:16.920Z,5.13
2019-01-24T08:28:43.090Z,4.00
2019-01-24T08:31:09.306Z,5.10
2019-01-24T08:33:35.567Z,5.37
2019-01-24T08:36:01.724Z,4.40
2019-01-24T08:38:28.031Z,4.00
2019-01-24T08:40:54.307Z,4.67
2019-01-24T08:43:23.362Z,4.87
2019-01-24T08:45:49.553Z,5.00
2019-01-24T08:48:15.706Z,6.57
2019-01-24T08:50:41.880Z,4.60
2019-01-24T08:53:08.069Z,5.37
2019-01-24T08:55:36.337Z,5.73
2019-01-24T08:58:03.389Z,4.00
2019-01-24T09:00:29.595Z,4.30
2019-01-24T09:02:56.264Z,3.67
2019-01-24T09:05:22.533Z,4.57
2019-01-24T09:07:48.943Z,3.67
2019-01-24T09:10:24.928Z,4.00
2019-01-24T09:12:51.218Z,4.30
2019-01-24T09:15:17.503Z,4.87
2019-01-24T09:17:43.637Z,3.47
2019-01-24T09:20:15.902Z,3.27
2019-01-24T09:22:42.183Z,4.63
2019-01-24T09:25:09.339Z,3.93
2019-01-24T09:27:35.516Z,4.33
2019-01-24T09:30:03.085Z,4.70
2019-01-24T09:32:29.235Z,3.53
2019-01-24T09:34:55.417Z,4.40
2019-01-24T09:37:21.584Z,5.10
2019-01-24T09:39:47.862Z,6.17
2019-01-24T09:42:14.704Z,5.47
2019-01-24T09:44:40.953Z,6.57
2019-01-24T09:47:07.112Z,5.83
2019-01-24T09:49:33.295Z,7.10
2019-01-24T09:51:59.467Z,5.93
2019-01-24T09:54:25.976Z,6.20
2019-01-24T09:56:52.170Z,5.73
2019-01-24T09:59:18.337Z,6.67
2019-01-24T10:01:45.594Z,7.60
2019-01-24T10:04:12.134Z,5.97
2019-01-24T10:06:38.384Z,7.30
2019-01-24T10:09:05.738Z,8.07
2019-01-24T10:11:31.945Z,7.40
2019-01-24T10:13:58.106Z,7.27
2019-01-24T10:16:24.382Z,7.20
2019-01-24T10:18:51.127Z,7.80
2019-01-24T10:21:17.282Z,8.60
2019-01-24T10:23:43.596Z,9.13
2019-01-24T10:26:09.791Z,10.60
2019-01-24T10:28:35.940Z,6.93
2019-01-24T10:31:02.197Z,7.57
2019-01-24T10:33:28.391Z,5.27
2019-01-24T10:35:54.651Z,5.60
2019-01-24T10:38:20.804Z,3.13
2019-01-24T10:40:47.083Z,4.20
2019-01-24T10:43:13.238Z,4.93
2019-01-24T10:45:45.768Z,6.75
2019-01-24T10:48:11.952Z,7.70
2019-01-24T10:50:38.136Z,8.83
2019-01-24T10:53:04.428Z,7.80
2019-01-24T10:55:30.596Z,8.77
2019-01-24T10:57:58.483Z,6.63
2019-01-24T11:00:27.643Z,5.47
2019-01-24T11:02:53.932Z,6.83
2019-01-24T11:05:20.101Z,6.63
2019-01-24T11:07:46.982Z,6.67
2019-01-24T11:10:16.272Z,6.63
2019-01-24T11:12:42.446Z,4.97
2019-01-24T11:15:17.020Z,6.37
2019-01-24T11:17:43.214Z,5.90
2019-01-24T11:20:12.479Z,5.30
2019-01-24T11:22:38.637Z,5.73
2019-01-24T11:25:09.319Z,5.40
2019-01-24T11:27:35.645Z,3.50
2019-01-24T11:30:03.899Z,4.90
2019-01-24T11:32:30.079Z,3.20
2019-01-24T11:34:56.227Z,5.20
2019-01-24T11:37:22.385Z,5.20
2019-01-24T11:39:48.685Z,4.67
2019-01-24T11:42:14.849Z,4.60
2019-01-24T11:44:41.039Z,3.00
2019-01-24T11:47:07.245Z,4.20
2019-01-24T11:49:33.393Z,6.07
2019-01-24T11:51:59.552Z,5.13
2019-01-24T11:54:25.741Z,2.57
2019-01-24T11:56:51.993Z,2.67
2019-01-24T11:59:18.156Z,3.53
2019-01-24T12:01:44.469Z,3.47
2019-01-24T12:04:10.641Z,3.60
2019-01-24T12:06:36.810Z,4.43
2019-01-24T12:09:06.055Z,4.07
2019-01-24T12:11:32.211Z,5.03
2019-01-24T12:13:58.395Z,5.20
2019-01-24T12:16:24.600Z,4.73
2019-01-24T12:18:50.808Z,7.10
2019-01-24T12:21:24.428Z,8.79
2019-01-24T12:23:50.627Z,6.83
2019-01-24T12:26:16.840Z,11.60
2019-01-24T12:28:43.113Z,7.83
2019-01-24T12:31:09.304Z,12.87
2019-01-24T12:33:35.674Z,7.77
2019-01-24T12:36:01.817Z,8.60
2019-01-24T12:38:27.995Z,6.63
2019-01-24T12:40:54.190Z,7.17
2019-01-24T12:43:23.241Z,7.00
2019-01-24T12:45:49.538Z,5.70
2019-01-24T12:48:15.694Z,5.87
2019-01-24T12:50:41.864Z,7.40
2019-01-24T12:53:08.063Z,7.30
2019-01-24T12:55:34.227Z,8.47
2019-01-24T12:58:00.391Z,6.60
2019-01-24T13:00:29.689Z,9.87
2019-01-24T13:02:55.940Z,9.97
2019-01-24T13:05:22.213Z,10.73
2019-01-24T13:07:48.519Z,15.73
2019-01-24T13:10:17.377Z,18.83
2019-01-24T13:12:43.659Z,16.30
2019-01-24T13:15:15.860Z,13.93
2019-01-24T13:17:42.019Z,13.60
2019-01-24T13:20:10.876Z,10.20
2019-01-24T13:22:37.059Z,19.30
2019-01-24T13:25:09.346Z,15.23
2019-01-24T13:27:35.563Z,12.07
2019-01-24T13:30:02.126Z,13.47
2019-01-24T13:32:28.460Z,21.30
2019-01-24T13:34:54.628Z,18.10
2019-01-24T13:37:25.736Z,22.23
2019-01-24T13:39:48.897Z,12.20
2019-01-24T13:42:15.161Z,11.23
2019-01-24T13:44:41.358Z,14.83
2019-01-24T13:47:07.517Z,24.13
2019-01-24T13:49:33.776Z,13.60
2019-01-24T13:52:00.126Z,17.40
2019-01-24T13:54:26.473Z,9.33
2019-01-24T13:56:52.673Z,9.23
2019-01-24T13:59:19.115Z,10.40
2019-01-24T14:01:45.265Z,17.47
2019-01-24T14:04:13.230Z,15.27
2019-01-24T14:06:39.489Z,15.40
2019-01-24T14:09:07.735Z,15.70
2019-01-24T14:11:33.896Z,21.57
2019-01-24T14:14:00.080Z,26.33
2019-01-24T14:16:26.235Z,13.97
2019-01-24T14:18:52.398Z,21.93
2019-01-24T14:21:18.692Z,28.30
2019-01-24T14:23:44.948Z,20.50
2019-01-24T14:26:11.103Z,25.30
2019-01-24T14:28:37.340Z,33.00
2019-01-24T14:31:03.795Z,25.20
2019-01-24T14:33:29.948Z,28.23
2019-01-24T14:35:58.420Z,23.45
2019-01-24T14:38:24.579Z,30.43
2019-01-24T14:40:50.748Z,22.77
2019-01-24T14:43:16.919Z,22.17
2019-01-24T14:45:43.185Z,33.57
2019-01-24T14:48:09.454Z,20.83
2019-01-24T14:50:35.648Z,23.07
2019-01-24T14:53:01.803Z,19.43
2019-01-24T14:55:28.062Z,24.77
2019-01-24T14:57:54.254Z,25.63
2019-01-24T15:00:32.901Z,21.27
2019-01-24T15:02:59.088Z,22.87
2019-01-24T15:05:25.540Z,16.23
2019-01-24T15:07:51.692Z,19.47
2019-01-24T15:10:17.878Z,17.17
2019-01-24T15:12:44.036Z,28.57
2019-01-24T15:15:14.723Z,21.40
2019-01-24T15:17:41.007Z,15.73
2019-01-24T15:20:12.503Z,17.03
2019-01-24T15:22:39.003Z,16.97
2019-01-24T15:25:08.489Z,26.17
2019-01-24T15:27:34.648Z,31.90
2019-01-24T15:30:00.863Z,26.93
2019-01-24T15:32:27.144Z,22.73
2019-01-24T15:34:53.352Z,23.60
2019-01-24T15:37:19.621Z,30.07
2019-01-24T15:39:46.044Z,22.47
2019-01-24T15:42:12.352Z,13.30
2019-01-24T15:44:38.535Z,30.17
2019-01-24T15:47:05.528Z,20.50
2019-01-24T15:49:31.851Z,24.83
2019-01-24T15:51:58.079Z,24.57
2019-01-24T15:54:24.262Z,22.30
2019-01-24T15:56:50.529Z,15.37
2019-01-24T15:59:16.757Z,17.20
2019-01-24T16:01:42.965Z,18.50
2019-01-24T16:04:09.224Z,18.67
2019-01-24T16:06:35.387Z,11.43
2019-01-24T16:09:01.578Z,12.20
2019-01-24T16:11:27.728Z,11.80
2019-01-24T16:13:53.890Z,17.60
2019-01-24T16:16:20.079Z,17.50
2019-01-24T16:18:46.369Z,15.50
2019-01-24T16:21:12.514Z,17.83
2019-01-24T16:23:38.699Z,16.60
2019-01-24T16:26:05.262Z,8.93
2019-01-24T16:28:31.420Z,16.47
2019-01-24T16:30:57.782Z,14.97
2019-01-24T16:33:23.932Z,14.93
2019-01-24T16:35:50.090Z,12.57
2019-01-24T16:38:16.278Z,12.57
2019-01-24T16:40:42.419Z,15.30
2019-01-24T16:43:08.675Z,19.70
2019-01-24T16:45:34.871Z,12.67
2019-01-24T16:48:01.010Z,10.80
2019-01-24T16:50:27.266Z,14.23
2019-01-24T16:52:53.452Z,8.77
2019-01-24T16:55:19.698Z,14.40
2019-01-24T16:57:46.954Z,14.90
2019-01-24T17:00:35.263Z,13.23
2019-01-24T17:03:01.442Z,20.13
2019-01-24T17:05:27.733Z,18.33
2019-01-24T17:07:54.026Z,10.93
2019-01-24T17:10:22.279Z,14.43
2019-01-24T17:12:48.434Z,13.77
2019-01-24T17:15:16.926Z,14.23
2019-01-24T17:17:43.116Z,13.53
2019-01-24T17:20:15.694Z,14.00
2019-01-24T17:22:41.979Z,15.30
2019-01-24T17:25:10.933Z,16.63
2019-01-24T17:27:37.088Z,16.30
2019-01-24T17:30:09.657Z,18.27
2019-01-24T17:32:35.922Z,25.13
2019-01-24T17:35:03.379Z,17.97
2019-01-24T17:37:29.675Z,19.47
2019-01-24T17:39:56.234Z,20.83
2019-01-24T17:42:22.475Z,20.30
2019-01-24T17:44:48.730Z,24.40
2019-01-24T17:47:14.968Z,20.23
2019-01-24T17:49:41.120Z,24.47
2019-01-24T17:52:07.412Z,29.77
2019-01-24T17:54:33.675Z,8.03
2019-01-24T17:56:59.865Z,16.37
2019-01-24T17:59:26.048Z,16.80
2019-01-24T18:01:52.292Z,21.83
2019-01-24T18:04:21.777Z,18.33
2019-01-24T18:06:46.530Z,24.93
2019-01-24T18:09:12.806Z,19.17
2019-01-24T18:11:39.323Z,24.00
2019-01-24T18:14:05.630Z,23.93
2019-01-24T18:16:31.900Z,18.93
2019-01-24T18:18:58.066Z,16.60
2019-01-24T18:21:24.265Z,20.73
2019-01-24T18:23:50.762Z,15.93
2019-01-24T18:26:17.060Z,18.20
2019-01-24T18:28:43.264Z,16.93
2019-01-24T18:31:09.436Z,17.67
2019-01-24T18:33:35.645Z,14.50
2019-01-24T18:36:01.932Z,17.47
2019-01-24T18:38:28.099Z,20.30
2019-01-24T18:40:54.256Z,26.07
2019-01-24T18:43:20.440Z,24.10
2019-01-24T18:45:52.187Z,42.30
2019-01-24T18:48:18.358Z,46.83
2019-01-24T18:50:45.262Z,34.87
2019-01-24T18:53:11.561Z,31.40
2019-01-24T18:55:37.711Z,24.80
2019-01-24T18:58:04.396Z,23.97
2019-01-24T19:00:32.551Z,24.43
2019-01-24T19:02:58.708Z,28.43
2019-01-24T19:05:24.894Z,33.47
2019-01-24T19:07:51.048Z,57.10
2019-01-24T19:10:17.300Z,48.67
2019-01-24T19:12:43.593Z,28.43
2019-01-24T19:15:16.652Z,26.00
2019-01-24T19:17:43.198Z,33.73
2019-01-24T19:20:11.290Z,36.67
2019-01-24T19:22:37.447Z,32.93
2019-01-24T19:25:07.205Z,30.57
2019-01-24T19:27:33.387Z,27.03
2019-01-24T19:29:59.542Z,25.57
2019-01-24T19:32:25.694Z,30.27
2019-01-24T19:34:51.886Z,23.37
2019-01-24T19:37:18.034Z,21.60
2019-01-24T19:39:44.186Z,18.13
2019-01-24T19:42:10.379Z,20.93
2019-01-24T19:44:36.541Z,17.43
2019-01-24T19:47:02.813Z,21.40
2019-01-24T19:49:29.001Z,20.93
2019-01-24T19:51:55.152Z,13.97
2019-01-24T19:54:21.803Z,22.63
2019-01-24T19:56:47.987Z,29.17
2019-01-24T19:59:14.143Z,24.70
2019-01-24T20:01:40.298Z,24.63
2019-01-24T20:04:06.486Z,18.03
2019-01-24T20:06:32.640Z,16.33
2019-01-24T20:09:00.316Z,19.03
2019-01-24T20:11:26.845Z,21.20
2019-01-24T20:13:53.007Z,16.97
2019-01-24T20:16:19.272Z,14.67
2019-01-24T20:18:45.619Z,17.97
2019-01-24T20:21:11.904Z,15.53
2019-01-24T20:23:38.052Z,23.67
2019-01-24T20:26:04.335Z,11.67
2019-01-24T20:28:30.654Z,15.53
2019-01-24T20:30:57.051Z,16.67
2019-01-24T20:33:23.363Z,11.90
2019-01-24T20:35:51.473Z,9.53
2019-01-24T20:38:17.789Z,14.77
2019-01-24T20:40:44.085Z,16.17
2019-01-24T20:43:11.641Z,17.60
2019-01-24T20:45:38.523Z,15.70
2019-01-24T20:48:04.714Z,15.93
2019-01-24T20:50:30.882Z,19.47
2019-01-24T20:52:57.039Z,19.90
2019-01-24T20:55:23.432Z,19.90
2019-01-24T20:57:49.594Z,19.60
2019-01-24T21:00:21.411Z,18.27
2019-01-24T21:02:47.601Z,14.87
2019-01-24T21:05:19.616Z,17.57
2019-01-24T21:07:45.811Z,17.93
2019-01-24T21:10:20.999Z,15.00
2019-01-24T21:12:47.163Z,17.97
2019-01-24T21:15:15.515Z,22.60
2019-01-24T21:17:41.806Z,21.60
2019-01-24T21:20:11.371Z,21.20
2019-01-24T21:22:37.628Z,21.37
2019-01-24T21:25:07.619Z,24.07
2019-01-24T21:27:34.899Z,18.43
2019-01-24T21:30:01.067Z,19.73
2019-01-24T21:32:27.366Z,19.93
2019-01-24T21:34:53.531Z,19.40
2019-01-24T21:37:20.545Z,14.63
2019-01-24T21:39:46.726Z,14.53
2019-01-24T21:42:12.893Z,134.80
2019-01-24T21:44:39.462Z,18.10
2019-01-24T21:47:05.630Z,22.30
2019-01-24T21:49:31.785Z,20.20
2019-01-24T21:51:57.945Z,24.93
2019-01-24T21:54:24.244Z,24.33
2019-01-24T21:56:50.396Z,21.87
2019-01-24T21:59:16.547Z,20.87
2019-01-24T22:01:42.731Z,23.23
2019-01-24T22:04:08.878Z,16.13
2019-01-24T22:06:35.028Z,22.17
2019-01-24T22:09:01.306Z,20.33
2019-01-24T22:11:27.507Z,96.53
2019-01-24T22:13:53.972Z,18.33
2019-01-24T22:16:20.267Z,68.03
2019-01-24T22:18:46.411Z,19.10
2019-01-24T22:21:12.575Z,17.43
2019-01-24T22:23:38.775Z,17.43
2019-01-24T22:26:05.131Z,14.60
2019-01-24T22:28:31.296Z,22.23
2019-01-24T22:30:58.280Z,17.47
2019-01-24T22:33:24.434Z,28.03
2019-01-24T22:35:50.601Z,23.27
2019-01-24T22:38:16.805Z,23.47
2019-01-24T22:40:42.964Z,23.40
2019-01-24T22:43:09.134Z,24.23
2019-01-24T22:45:35.339Z,22.10
2019-01-24T22:48:01.502Z,20.57
2019-01-24T22:50:27.671Z,24.53
2019-01-24T22:52:53.861Z,25.20
2019-01-24T22:55:20.022Z,26.33
2019-01-24T22:57:46.179Z,29.17
2019-01-24T23:00:49.381Z,28.43
2019-01-24T23:03:22.027Z,27.37
2019-01-24T23:05:48.289Z,29.63
2019-01-24T23:08:14.485Z,32.70
2019-01-24T23:10:40.642Z,31.50
2019-01-24T23:13:06.798Z,30.23
2019-01-24T23:15:33.098Z,29.27
2019-01-24T23:17:59.361Z,27.53
2019-01-24T23:20:25.520Z,27.13
2019-01-24T23:22:51.928Z,29.37
2019-01-24T23:25:18.088Z,29.13
2019-01-24T23:27:45.143Z,29.10
2019-01-24T23:30:11.954Z,25.47
2019-01-24T23:32:38.109Z,25.20
2019-01-24T23:35:05.464Z,32.50
2019-01-24T23:37:31.662Z,24.33
2019-01-24T23:39:57.864Z,27.30
2019-01-24T23:42:24.024Z,30.47
2019-01-24T23:44:50.201Z,33.33
2019-01-24T23:47:16.360Z,32.57
2019-01-24T23:49:42.521Z,27.97
2019-01-24T23:52:08.813Z,27.97
2019-01-24T23:54:35.072Z,31.03
2019-01-24T23:57:01.238Z,34.20
2019-01-24T23:59:28.934Z,29.83
